Time;durP1;ratioP1;P1;durP2;ratioP2;P2;SDS_P1;SDS_P2;PMS_P1;PMS_P2;Temp;Humidity;BMP_temperature;BMP_pressure;BME280_temperature;BME280_humidity;BME280_pressure;Samples;Min_cycle;Max_cycle;Signal;HPM_P1;HPM_P2
2023/11/15 00:00:25;;;;;;;2.37;1.30;;;11.20;93.20;;;;;;5067480;28;20466;-46
2023/11/15 00:02:53;;;;;;;3.33;1.33;;;11.10;93.20;;;;;;5063887;28;20823;-45
2023/11/15 00:05:21;;;;;;;2.93;1.00;;;11.10;93.20;;;;;;5062841;28;20896;-45
2023/11/15 00:07:50;;;;;;;4.37;1.50;;;11.20;93.30;;;;;;5063013;28;20467;-44
2023/11/15 00:10:18;;;;;;;3.07;1.10;;;11.10;93.30;;;;;;5064795;28;21049;-47
2023/11/15 00:12:47;;;;;;;2.60;0.80;;;11.10;93.20;;;;;;5060229;28;20441;-46
2023/11/15 00:15:17;;;;;;;1.60;0.90;;;11.10;93.10;;;;;;5057865;28;20992;-45
2023/11/15 00:17:50;;;;;;;2.07;1.27;;;11.10;93.20;;;;;;5062505;28;20468;-45
2023/11/15 00:20:19;;;;;;;2.50;1.20;;;11.20;93.20;;;;;;5063882;28;20852;-45
2023/11/15 00:22:48;;;;;;;5.40;1.40;;;11.10;93.10;;;;;;5059375;28;20952;-44
2023/11/15 00:25:16;;;;;;;2.80;1.30;;;11.10;93.10;;;;;;5055690;28;20472;-46
2023/11/15 00:27:45;;;;;;;4.97;1.40;;;11.20;93.20;;;;;;5058890;28;20453;-45
2023/11/15 00:30:16;;;;;;;3.80;1.40;;;11.10;93.10;;;;;;5063020;28;20927;-44
2023/11/15 00:32:44;;;;;;;2.00;1.30;;;11.10;93.10;;;;;;5058601;28;20441;-46
2023/11/15 00:35:12;;;;;;;1.60;0.97;;;11.10;93.10;;;;;;5065949;28;20519;-45
2023/11/15 00:37:48;;;;;;;4.13;1.40;;;11.10;93.10;;;;;;5065032;28;20851;-45
2023/11/15 00:40:16;;;;;;;3.13;1.20;;;11.10;93.20;;;;;;5066076;28;20466;-45
2023/11/15 00:42:44;;;;;;;2.60;1.53;;;11.10;93.20;;;;;;5065566;28;20530;-45
2023/11/15 00:45:12;;;;;;;2.30;1.10;;;11.20;93.30;;;;;;5056296;28;20460;-46
2023/11/15 00:47:42;;;;;;;2.00;0.90;;;11.10;93.10;;;;;;5058118;28;20440;-46
2023/11/15 00:50:11;;;;;;;2.80;1.40;;;11.10;93.10;;;;;;5063994;28;20455;-45
2023/11/15 00:52:39;;;;;;;2.83;1.40;;;11.10;93.20;;;;;;5060082;28;20424;-46
2023/11/15 00:55:08;;;;;;;2.77;1.40;;;11.10;93.10;;;;;;5059733;28;20472;-45
2023/11/15 00:57:36;;;;;;;2.77;1.20;;;11.20;93.20;;;;;;5060575;28;20451;-45
2023/11/15 01:00:21;;;;;;;2.97;0.80;;;11.10;93.20;;;;;;5065307;28;20470;-44
2023/11/15 01:02:54;;;;;;;2.13;1.10;;;11.10;93.10;;;;;;5058501;28;20430;-46
2023/11/15 01:05:23;;;;;;;2.97;1.20;;;11.20;93.20;;;;;;5063097;28;20536;-47
2023/11/15 01:07:57;;;;;;;2.63;1.13;;;11.20;93.20;;;;;;5058881;28;20967;-46
2023/11/15 01:10:26;;;;;;;5.07;1.60;;;11.10;93.20;;;;;;5058832;28;20502;-46
2023/11/15 01:12:57;;;;;;;4.27;1.50;;;11.10;93.10;;;;;;5059979;28;20700;-45
2023/11/15 01:15:26;;;;;;;3.40;1.50;;;11.10;93.20;;;;;;5056901;28;20506;-44
2023/11/15 01:17:57;;;;;;;6.27;1.60;;;11.10;93.10;;;;;;5063179;28;20467;-44
2023/11/15 01:20:27;;;;;;;6.63;1.47;;;11.10;93.20;;;;;;5060366;28;20543;-46
2023/11/15 01:22:55;;;;;;;2.60;1.20;;;11.20;93.60;;;;;;5060113;28;20439;-46
2023/11/15 01:25:30;;;;;;;5.23;1.47;;;11.20;93.70;;;;;;5059956;28;20470;-45
2023/11/15 01:27:58;;;;;;;7.20;1.53;;;11.20;93.20;;;;;;5056605;28;20461;-43
2023/11/15 01:30:27;;;;;;;2.77;1.23;;;11.10;93.10;;;;;;5060107;28;20881;-47
2023/11/15 01:32:57;;;;;;;3.00;1.10;;;11.10;93.10;;;;;;5056644;28;20436;-46
2023/11/15 01:35:26;;;;;;;7.83;2.27;;;11.10;93.10;;;;;;5059444;28;20470;-46
2023/11/15 01:37:54;;;;;;;2.77;1.23;;;11.20;93.20;;;;;;5061353;28;21044;-46
2023/11/15 01:40:23;;;;;;;2.37;1.40;;;11.10;93.00;;;;;;5060552;28;20557;-46
2023/11/15 01:42:51;;;;;;;2.33;1.30;;;11.10;93.10;;;;;;5058381;28;20438;-46
2023/11/15 01:45:20;;;;;;;5.13;1.47;;;11.20;93.20;;;;;;5057645;28;20915;-46
2023/11/15 01:47:48;;;;;;;4.53;1.80;;;11.20;93.20;;;;;;5064263;28;20976;-46
2023/11/15 01:50:18;;;;;;;3.20;2.43;;;11.10;93.20;;;;;;5061925;28;20841;-46
2023/11/15 01:52:51;;;;;;;3.30;1.37;;;11.20;93.10;;;;;;5058821;28;20457;-46
2023/11/15 01:55:20;;;;;;;3.40;1.30;;;11.10;93.10;;;;;;5060261;28;20478;-45
2023/11/15 01:57:52;;;;;;;2.13;1.23;;;11.10;93.10;;;;;;5063797;28;20448;-45
2023/11/15 02:00:20;;;;;;;2.60;1.70;;;11.20;93.10;;;;;;5059477;28;20465;-45
2023/11/15 02:02:49;;;;;;;2.70;1.70;;;11.10;93.10;;;;;;5064032;28;20523;-45
2023/11/15 02:05:19;;;;;;;2.20;1.30;;;11.10;93.20;;;;;;5057182;28;20478;-44
2023/11/15 02:07:48;;;;;;;3.00;1.33;;;11.20;93.10;;;;;;5064367;28;20470;-46
2023/11/15 02:10:16;;;;;;;2.97;1.50;;;11.10;93.10;;;;;;5055603;28;20996;-46
2023/11/15 02:12:49;;;;;;;3.33;1.20;;;11.10;93.10;;;;;;5061141;28;20441;-45
2023/11/15 02:15:21;;;;;;;2.07;1.17;;;11.10;93.10;;;;;;5060657;28;20477;-45
2023/11/15 02:17:50;;;;;;;3.50;1.30;;;11.10;93.10;;;;;;5067022;28;20645;-45
2023/11/15 02:20:22;;;;;;;1.93;1.47;;;11.10;93.10;;;;;;5056563;28;20518;-45
2023/11/15 02:22:52;;;;;;;5.83;1.63;;;11.20;93.10;;;;;;5061910;28;21012;-47
2023/11/15 02:25:23;;;;;;;4.80;1.30;;;11.10;93.10;;;;;;5050877;28;20471;-46
2023/11/15 02:27:54;;;;;;;5.10;1.33;;;11.10;93.00;;;;;;5067760;28;20972;-45
2023/11/15 02:30:22;;;;;;;4.77;1.50;;;11.20;93.10;;;;;;5061902;28;20582;-44
2023/11/15 02:32:52;;;;;;;3.43;1.30;;;11.10;93.10;;;;;;5056944;28;20424;-44
2023/11/15 02:35:20;;;;;;;4.27;1.30;;;11.10;93.10;;;;;;5065784;28;20520;-46
2023/11/15 02:37:51;;;;;;;2.20;1.10;;;11.10;93.30;;;;;;5058475;28;20441;-46
2023/11/15 02:40:21;;;;;;;3.47;1.40;;;11.20;93.10;;;;;;5060085;28;20470;-43
2023/11/15 02:42:51;;;;;;;2.00;1.47;;;11.10;93.10;;;;;;5057681;28;20441;-46
2023/11/15 02:45:19;;;;;;;1.73;1.13;;;11.10;93.10;;;;;;5062152;28;20493;-45
2023/11/15 02:47:47;;;;;;;3.27;1.57;;;11.10;93.00;;;;;;5063521;28;20458;-44
2023/11/15 02:50:16;;;;;;;4.27;1.63;;;11.10;93.10;;;;;;5058738;28;20460;-44
2023/11/15 02:52:45;;;;;;;4.77;1.37;;;11.20;93.10;;;;;;5058081;28;20470;-44
2023/11/15 02:55:13;;;;;;;5.03;1.50;;;11.10;93.00;;;;;;5058282;28;20484;-44
2023/11/15 02:57:43;;;;;;;3.83;1.30;;;11.20;93.10;;;;;;5065936;28;21002;-44
2023/11/15 03:00:12;;;;;;;5.03;1.67;;;11.20;93.10;;;;;;5055204;28;20946;-46
2023/11/15 03:02:40;;;;;;;2.37;1.30;;;11.10;93.10;;;;;;5068991;28;20434;-46
2023/11/15 03:05:09;;;;;;;7.07;1.50;;;11.20;93.10;;;;;;5057729;28;20507;-46
2023/11/15 03:07:38;;;;;;;5.10;1.93;;;11.10;93.00;;;;;;5062261;28;20503;-45
2023/11/15 03:10:08;;;;;;;3.60;1.80;;;11.10;93.00;;;;;;5054795;28;20854;-45
2023/11/15 03:12:36;;;;;;;4.70;1.43;;;11.10;93.10;;;;;;5065365;28;20444;-45
2023/11/15 03:15:07;;;;;;;1.90;1.20;;;11.20;93.10;;;;;;5057464;28;20566;-45
2023/11/15 03:17:41;;;;;;;3.83;1.60;;;11.10;93.00;;;;;;5043714;28;21095;-46
2023/11/15 03:20:10;;;;;;;2.93;1.30;;;11.10;93.10;;;;;;5056641;28;20476;-45
2023/11/15 03:22:39;;;;;;;3.60;1.40;;;11.10;93.00;;;;;;5062580;28;20501;-44
2023/11/15 03:25:08;;;;;;;3.63;1.60;;;11.20;93.00;;;;;;5064217;28;20522;-44
2023/11/15 03:27:38;;;;;;;2.83;1.20;;;11.20;93.00;;;;;;5061801;28;20841;-45
2023/11/15 03:30:09;;;;;;;2.37;1.17;;;11.20;93.50;;;;;;5062431;28;20582;-45
2023/11/15 03:32:40;;;;;;;4.63;1.57;;;11.20;93.00;;;;;;5070836;28;20819;-45
2023/11/15 03:35:09;;;;;;;4.33;1.20;;;11.20;93.00;;;;;;5057192;28;20472;-46
2023/11/15 03:37:41;;;;;;;4.07;2.00;;;11.10;93.00;;;;;;5066620;28;20486;-45
2023/11/15 03:40:19;;;;;;;3.83;1.30;;;11.10;92.90;;;;;;5064705;28;21025;-44
2023/11/15 03:42:50;;;;;;;5.40;1.90;;;11.10;93.00;;;;;;5064037;28;20790;-45
2023/11/15 03:45:23;;;;;;;3.50;1.40;;;11.10;93.00;;;;;;5058111;28;20455;-45
2023/11/15 03:47:54;;;;;;;6.30;1.30;;;11.10;92.90;;;;;;5061458;28;21087;-46
2023/11/15 03:50:22;;;;;;;2.20;1.20;;;11.10;93.00;;;;;;5068100;28;20475;-46
2023/11/15 03:52:50;;;;;;;3.00;1.60;;;11.10;92.90;;;;;;5059739;28;20970;-45
2023/11/15 03:55:18;;;;;;;4.30;1.40;;;11.10;93.00;;;;;;5059962;28;20465;-45
2023/11/15 03:57:46;;;;;;;4.60;1.80;;;11.10;92.90;;;;;;5065607;28;20505;-44
2023/11/15 04:00:16;;;;;;;2.63;1.77;;;11.10;92.90;;;;;;5060887;28;20465;-44
2023/11/15 04:02:46;;;;;;;2.53;1.17;;;11.10;92.90;;;;;;5061840;28;20501;-43
2023/11/15 04:05:17;;;;;;;4.63;1.40;;;11.10;92.90;;;;;;5068562;28;20476;-44
2023/11/15 04:07:46;;;;;;;3.70;1.60;;;11.10;92.90;;;;;;5068274;28;20870;-46
2023/11/15 04:10:15;;;;;;;3.83;1.60;;;11.10;92.90;;;;;;5061578;28;20567;-45
2023/11/15 04:12:43;;;;;;;4.67;1.30;;;11.10;92.90;;;;;;5063596;28;20443;-46
2023/11/15 04:15:15;;;;;;;12.63;2.33;;;11.10;92.90;;;;;;5061714;28;20523;-46
2023/11/15 04:17:46;;;;;;;2.40;1.93;;;11.10;93.00;;;;;;5059467;28;20458;-43
2023/11/15 04:20:15;;;;;;;2.50;1.20;;;11.10;92.90;;;;;;5064310;28;20513;-44
2023/11/15 04:22:43;;;;;;;2.13;1.10;;;11.10;92.90;;;;;;5060200;28;20427;-46
2023/11/15 04:25:15;;;;;;;8.60;1.77;;;11.10;93.30;;;;;;5060211;28;20479;-46
2023/11/15 04:27:45;;;;;;;3.20;1.63;;;11.10;92.90;;;;;;5070379;28;20443;-46
2023/11/15 04:30:16;;;;;;;2.17;1.03;;;11.10;92.90;;;;;;5060142;28;20498;-46
2023/11/15 04:32:47;;;;;;;3.70;1.80;;;11.10;92.90;;;;;;5060937;28;20437;-46
2023/11/15 04:35:15;;;;;;;2.17;1.37;;;11.10;92.90;;;;;;5057179;28;20485;-46
2023/11/15 04:37:44;;;;;;;1.97;1.27;;;11.10;92.90;;;;;;5059796;28;20475;-46
2023/11/15 04:40:12;;;;;;;7.67;2.20;;;11.10;92.90;;;;;;5059747;28;20486;-46
2023/11/15 04:42:40;;;;;;;3.33;2.40;;;11.10;92.90;;;;;;5061056;28;20456;-44
2023/11/15 04:45:10;;;;;;;2.33;1.27;;;11.10;92.90;;;;;;5058092;28;20813;-45
2023/11/15 04:47:38;;;;;;;2.30;1.20;;;11.10;92.90;;;;;;5064162;28;20483;-46
2023/11/15 04:50:09;;;;;;;4.27;1.40;;;11.10;92.90;;;;;;5058203;28;20483;-44
2023/11/15 04:52:40;;;;;;;3.07;1.23;;;11.20;92.90;;;;;;5064489;28;20431;-45
2023/11/15 04:55:10;;;;;;;3.73;2.57;;;11.10;92.90;;;;;;5059563;28;21021;-46
2023/11/15 04:57:39;;;;;;;4.73;1.47;;;11.10;92.90;;;;;;5062767;28;20472;-46
2023/11/15 05:00:10;;;;;;;4.10;1.60;;;11.10;93.30;;;;;;5062724;28;20450;-46
2023/11/15 05:02:38;;;;;;;5.47;2.83;;;11.10;92.90;;;;;;5068058;28;20500;-46
2023/11/15 05:05:10;;;;;;;4.40;2.00;;;11.10;92.80;;;;;;5061487;28;20483;-45
2023/11/15 05:07:39;;;;;;;2.47;1.40;;;11.10;92.90;;;;;;5061328;28;20465;-44
2023/11/15 05:10:09;;;;;;;2.80;1.13;;;11.10;92.80;;;;;;5057394;28;20490;-45
2023/11/15 05:12:41;;;;;;;3.57;1.53;;;11.10;92.80;;;;;;5059742;28;20433;-46
2023/11/15 05:15:12;;;;;;;4.67;1.67;;;11.10;92.90;;;;;;5067333;28;20464;-45
2023/11/15 05:17:42;;;;;;;3.13;1.67;;;11.10;93.30;;;;;;5061316;28;20888;-44
2023/11/15 05:20:12;;;;;;;4.70;1.90;;;11.10;92.80;;;;;;5055956;28;20879;-46
2023/11/15 05:22:40;;;;;;;2.77;1.33;;;11.10;92.80;;;;;;5063280;28;21303;-44
2023/11/15 05:25:09;;;;;;;4.20;2.00;;;11.10;92.80;;;;;;5057324;28;20470;-44
2023/11/15 05:27:37;;;;;;;3.20;0.90;;;11.10;92.80;;;;;;5065901;28;20969;-46
2023/11/15 05:30:07;;;;;;;6.27;1.63;;;11.10;92.80;;;;;;5058423;28;21014;-46
2023/11/15 05:32:36;;;;;;;3.20;1.53;;;11.10;92.80;;;;;;5060793;28;20925;-45
2023/11/15 05:35:10;;;;;;;3.40;1.50;;;11.10;92.80;;;;;;5057862;28;20524;-44
2023/11/15 05:37:39;;;;;;;2.97;1.53;;;11.10;92.80;;;;;;5057550;28;20476;-45
2023/11/15 05:40:12;;;;;;;3.83;1.67;;;11.10;92.80;;;;;;5065299;28;20541;-44
2023/11/15 05:42:40;;;;;;;5.70;1.53;;;11.10;92.70;;;;;;5068533;28;20826;-46
2023/11/15 05:45:12;;;;;;;4.50;1.83;;;11.10;92.90;;;;;;5056345;28;20479;-46
2023/11/15 05:47:41;;;;;;;3.00;1.37;;;11.10;92.80;;;;;;5057944;28;20471;-45
2023/11/15 05:50:12;;;;;;;6.13;1.90;;;11.10;92.90;;;;;;5063511;28;20983;-46
2023/11/15 05:52:46;;;;;;;2.17;1.53;;;11.10;92.80;;;;;;5069170;28;20452;-46
2023/11/15 05:55:14;;;;;;;2.60;1.40;;;11.10;92.80;;;;;;5061023;28;20547;-45
2023/11/15 05:57:42;;;;;;;2.63;1.30;;;11.10;92.80;;;;;;5068023;28;20470;-45
2023/11/15 06:00:18;;;;;;;3.10;1.23;;;11.10;92.70;;;;;;5061244;28;20464;-46
2023/11/15 06:02:50;;;;;;;1.80;1.27;;;11.10;92.70;;;;;;5058209;28;20476;-46
2023/11/15 06:05:19;;;;;;;3.00;1.50;;;11.10;92.70;;;;;;5055260;28;20990;-46
2023/11/15 06:07:53;;;;;;;4.70;1.50;;;11.10;92.70;;;;;;5068318;28;20453;-46
2023/11/15 06:10:21;;;;;;;3.30;1.50;;;11.10;92.90;;;;;;5061302;28;20553;-45
2023/11/15 06:12:51;;;;;;;3.00;1.63;;;11.10;92.80;;;;;;5059600;28;20438;-46
2023/11/15 06:15:19;;;;;;;1.97;1.57;;;11.10;92.80;;;;;;5060505;28;20455;-46
2023/11/15 06:17:51;;;;;;;3.50;1.30;;;11.10;92.80;;;;;;5063705;28;20977;-46
2023/11/15 06:20:20;;;;;;;5.27;1.90;;;11.10;92.70;;;;;;5059129;28;20554;-45
2023/11/15 06:22:48;;;;;;;2.10;1.90;;;11.10;92.70;;;;;;5061548;28;20931;-46
2023/11/15 06:25:18;;;;;;;3.70;2.03;;;11.10;92.70;;;;;;5059529;28;20891;-45
2023/11/15 06:27:47;;;;;;;3.60;1.27;;;11.10;92.70;;;;;;5058914;28;20442;-44
2023/11/15 06:30:17;;;;;;;4.93;1.60;;;11.10;92.70;;;;;;5060990;28;20472;-44
2023/11/15 06:32:50;;;;;;;3.10;1.70;;;11.10;92.70;;;;;;5063446;28;20983;-46
2023/11/15 06:35:19;;;;;;;3.30;1.70;;;11.10;92.80;;;;;;5057906;28;20477;-45
2023/11/15 06:37:48;;;;;;;6.23;1.67;;;11.10;92.80;;;;;;5064745;28;20563;-45
2023/11/15 06:40:18;;;;;;;6.87;1.50;;;11.10;92.80;;;;;;5058016;28;20486;-45
2023/11/15 06:42:46;;;;;;;3.17;1.17;;;11.10;92.90;;;;;;5065113;28;20439;-45
2023/11/15 06:45:14;;;;;;;2.70;1.20;;;11.10;92.70;;;;;;5062238;28;20471;-45
2023/11/15 06:47:43;;;;;;;5.00;1.93;;;11.10;92.70;;;;;;5061963;28;20481;-44
2023/11/15 06:50:12;;;;;;;4.43;1.60;;;11.10;92.80;;;;;;5061653;28;20472;-45
2023/11/15 06:52:40;;;;;;;3.53;1.30;;;11.10;92.80;;;;;;5063885;28;20436;-45
2023/11/15 06:55:19;;;;;;;4.70;1.50;;;11.10;92.80;;;;;;5060031;28;20549;-44
2023/11/15 06:57:47;;;;;;;7.17;1.67;;;11.10;92.70;;;;;;5066769;28;20467;-45
2023/11/15 07:00:16;;;;;;;3.20;1.27;;;11.10;92.70;;;;;;5064245;28;20512;-45
2023/11/15 07:02:44;;;;;;;1.83;1.40;;;11.10;92.90;;;;;;5060722;28;20446;-45
2023/11/15 07:05:13;;;;;;;2.73;1.60;;;11.10;92.80;;;;;;5060626;28;21027;-45
2023/11/15 07:07:41;;;;;;;2.30;1.60;;;11.10;92.80;;;;;;5063929;28;20544;-44
2023/11/15 07:10:10;;;;;;;5.17;1.73;;;11.10;92.70;;;;;;5060591;28;20888;-45
2023/11/15 07:12:40;;;;;;;2.50;1.57;;;11.10;92.80;;;;;;5088589;28;20425;-45
2023/11/15 07:15:14;;;;;;;2.17;1.37;;;11.10;92.80;;;;;;5060926;28;20466;-45
2023/11/15 07:17:42;;;;;;;3.60;1.10;;;11.10;92.80;;;;;;5061052;28;20485;-44
2023/11/15 07:20:20;;;;;;;2.40;1.50;;;11.10;92.90;;;;;;5062565;28;20469;-45
2023/11/15 07:22:49;;;;;;;4.60;2.30;;;11.10;92.70;;;;;;5063632;28;20514;-46
2023/11/15 07:25:20;;;;;;;3.50;1.30;;;11.10;92.80;;;;;;5059085;28;20472;-44
2023/11/15 07:27:52;;;;;;;4.03;2.13;;;11.10;92.70;;;;;;5063049;28;20459;-44
2023/11/15 07:30:22;;;;;;;5.67;2.10;;;11.10;92.90;;;;;;5060239;28;20792;-45
2023/11/15 07:32:50;;;;;;;2.77;1.40;;;11.10;92.90;;;;;;5060864;28;20513;-45
2023/11/15 07:35:22;;;;;;;4.83;1.60;;;11.10;92.80;;;;;;5063661;28;20492;-45
2023/11/15 07:37:52;;;;;;;3.10;1.67;;;11.10;92.80;;;;;;5066998;28;20851;-44
2023/11/15 07:40:22;;;;;;;3.00;1.40;;;11.10;92.80;;;;;;5059020;28;20467;-46
2023/11/15 07:42:52;;;;;;;3.53;1.50;;;11.10;92.70;;;;;;5067239;28;20430;-45
2023/11/15 07:45:20;;;;;;;3.57;2.50;;;11.10;92.80;;;;;;5061116;28;20466;-45
2023/11/15 07:47:48;;;;;;;3.27;1.83;;;11.10;92.70;;;;;;5064838;28;20466;-45
2023/11/15 07:50:17;;;;;;;6.30;1.80;;;11.10;92.80;;;;;;5063924;28;20480;-44
2023/11/15 07:52:46;;;;;;;2.20;1.40;;;11.10;92.80;;;;;;5061991;28;20424;-47
2023/11/15 07:55:15;;;;;;;3.00;1.70;;;11.10;92.80;;;;;;5060078;28;20813;-46
2023/11/15 07:57:43;;;;;;;4.43;1.60;;;11.10;92.80;;;;;;5061567;28;20493;-45
2023/11/15 08:00:14;;;;;;;3.60;1.70;;;11.10;92.70;;;;;;5060144;28;20465;-45
2023/11/15 08:02:44;;;;;;;2.40;1.77;;;11.10;92.70;;;;;;5065845;28;20439;-47
2023/11/15 08:05:12;;;;;;;5.83;1.83;;;11.10;92.70;;;;;;5058402;28;20467;-45
2023/11/15 08:07:40;;;;;;;4.63;1.63;;;11.10;92.60;;;;;;5066325;28;20453;-44
2023/11/15 08:10:13;;;;;;;3.50;1.73;;;11.10;92.60;;;;;;5059475;28;20473;-45
2023/11/15 08:12:43;;;;;;;2.90;1.67;;;11.10;92.70;;;;;;5061000;28;20449;-45
2023/11/15 08:15:15;;;;;;;2.53;1.23;;;11.10;92.60;;;;;;5064633;28;20471;-46
2023/11/15 08:17:44;;;;;;;2.67;1.40;;;11.10;92.60;;;;;;5065382;28;20918;-45
2023/11/15 08:20:16;;;;;;;2.60;1.40;;;11.10;92.60;;;;;;5059665;28;20487;-45
2023/11/15 08:22:45;;;;;;;3.30;1.30;;;11.10;92.70;;;;;;5064509;28;20447;-44
2023/11/15 08:25:15;;;;;;;4.30;1.37;;;11.10;92.50;;;;;;5066352;28;20933;-45
2023/11/15 08:27:44;;;;;;;2.20;1.30;;;11.10;92.60;;;;;;5062416;28;20458;-45
2023/11/15 08:30:17;;;;;;;2.67;1.53;;;11.10;92.70;;;;;;5061671;28;20476;-45
2023/11/15 08:32:45;;;;;;;5.63;1.53;;;11.10;92.50;;;;;;5059352;28;20452;-45
2023/11/15 08:35:14;;;;;;;4.30;1.50;;;11.10;92.60;;;;;;5063320;28;21004;-45
2023/11/15 08:37:43;;;;;;;5.30;1.30;;;11.10;92.50;;;;;;5066433;28;20465;-45
2023/11/15 08:40:12;;;;;;;1.50;1.10;;;11.10;92.80;;;;;;5065323;28;20499;-45
2023/11/15 08:42:43;;;;;;;5.57;2.30;;;11.10;92.50;;;;;;5069058;28;20434;-45
2023/11/15 08:45:15;;;;;;;2.23;1.60;;;11.10;93.10;;;;;;5058480;28;20467;-45
2023/11/15 08:47:43;;;;;;;5.03;3.57;;;11.10;93.10;;;;;;5062143;28;20486;-46
2023/11/15 08:50:18;;;;;;;4.87;1.63;;;11.10;92.60;;;;;;5058465;28;20564;-45
2023/11/15 08:52:50;;;;;;;4.07;2.10;;;11.10;92.60;;;;;;5067136;28;20438;-45
2023/11/15 08:55:18;;;;;;;2.60;1.47;;;11.10;92.60;;;;;;5058920;28;20474;-45
2023/11/15 08:57:50;;;;;;;4.70;1.67;;;11.10;92.50;;;;;;5065970;28;20885;-45
2023/11/15 09:00:20;;;;;;;2.93;1.50;;;11.10;92.60;;;;;;5059044;28;20511;-45
2023/11/15 09:02:48;;;;;;;4.43;1.43;;;11.10;92.60;;;;;;5062043;28;20938;-45
2023/11/15 09:05:22;;;;;;;3.53;1.90;;;11.10;92.60;;;;;;5055872;28;20543;-45
2023/11/15 09:07:51;;;;;;;4.10;1.63;;;11.10;92.60;;;;;;5065960;28;21036;-45
2023/11/15 09:10:22;;;;;;;2.20;1.47;;;11.10;92.60;;;;;;5056819;28;20481;-45
2023/11/15 09:12:52;;;;;;;4.73;2.20;;;11.10;92.60;;;;;;5061241;28;20444;-45
2023/11/15 09:15:25;;;;;;;3.37;1.57;;;11.20;92.60;;;;;;5069933;28;20550;-45
2023/11/15 09:17:53;;;;;;;4.30;1.30;;;11.20;92.60;;;;;;5057216;28;20479;-45
2023/11/15 09:20:27;;;;;;;2.23;1.10;;;11.20;92.50;;;;;;5056020;28;20510;-45
2023/11/15 09:22:57;;;;;;;3.60;1.63;;;11.20;92.50;;;;;;5061563;28;20789;-44
2023/11/15 09:25:30;;;;;;;3.47;1.47;;;11.20;92.40;;;;;;5057430;28;20588;-45
2023/11/15 09:28:02;;;;;;;2.90;1.47;;;11.20;92.40;;;;;;5059848;28;21023;-43
2023/11/15 09:30:32;;;;;;;4.53;1.67;;;11.20;92.40;;;;;;5058480;28;21088;-47
2023/11/15 09:33:03;;;;;;;4.43;1.60;;;11.20;92.40;;;;;;5058331;28;20440;-45
2023/11/15 09:35:36;;;;;;;2.53;1.40;;;11.20;92.40;;;;;;5061444;28;20568;-45
2023/11/15 09:38:11;;;;;;;3.10;1.40;;;11.20;92.40;;;;;;5061312;28;20875;-45
2023/11/15 09:40:39;;;;;;;4.43;1.80;;;11.20;92.30;;;;;;5064827;28;20498;-45
2023/11/15 09:43:10;;;;;;;3.90;1.67;;;11.20;92.30;;;;;;5065730;28;20475;-45
2023/11/15 09:45:42;;;;;;;4.07;1.77;;;11.20;92.30;;;;;;5062485;28;20457;-45
2023/11/15 09:48:11;;;;;;;3.73;1.90;;;11.20;92.30;;;;;;5058667;28;20556;-45
2023/11/15 09:50:48;;;;;;;4.07;1.53;;;11.20;92.40;;;;;;5060818;28;21010;-45
2023/11/15 09:53:20;;;;;;;4.40;1.70;;;11.30;92.40;;;;;;5064756;28;20436;-45
2023/11/15 09:55:49;;;;;;;3.10;1.77;;;11.20;92.30;;;;;;5059100;28;20481;-45
2023/11/15 09:58:17;;;;;;;3.40;1.50;;;11.20;92.40;;;;;;5063746;28;20879;-45
2023/11/15 10:00:53;;;;;;;2.67;1.40;;;11.20;92.40;;;;;;5063032;28;20543;-46
2023/11/15 10:03:21;;;;;;;4.10;1.40;;;11.20;92.30;;;;;;5057138;28;20820;-44
2023/11/15 10:05:59;;;;;;;5.83;1.73;;;11.20;92.30;;;;;;5060373;28;20830;-47
2023/11/15 10:08:28;;;;;;;3.70;1.27;;;11.20;92.40;;;;;;5056829;28;20456;-44
2023/11/15 10:11:04;;;;;;;4.17;1.97;;;11.20;92.30;;;;;;5051673;28;20451;-44
2023/11/15 10:13:35;;;;;;;3.33;1.33;;;11.20;92.30;;;;;;5057309;28;20520;-46
2023/11/15 10:16:22;;;;;;;3.03;2.00;;;11.30;92.40;;;;;;5063013;28;20785;-45
2023/11/15 10:18:52;;;;;;;2.23;1.33;;;11.20;92.30;;;;;;5059672;28;20528;-44
2023/11/15 10:21:20;;;;;;;2.27;1.10;;;11.30;92.40;;;;;;5060875;28;20424;-45
2023/11/15 10:23:48;;;;;;;3.07;1.40;;;11.30;92.40;;;;;;5058665;28;20475;-45
2023/11/15 10:26:17;;;;;;;3.00;1.50;;;11.20;92.40;;;;;;5061715;28;20475;-45
2023/11/15 10:28:46;;;;;;;4.30;1.60;;;11.30;92.30;;;;;;5066297;28;20507;-45
2023/11/15 10:31:18;;;;;;;2.17;1.33;;;11.20;92.30;;;;;;5058747;28;20525;-45
2023/11/15 10:33:51;;;;;;;4.10;1.33;;;11.20;92.30;;;;;;5060273;28;20507;-45
2023/11/15 10:36:21;;;;;;;3.00;1.20;;;11.30;92.40;;;;;;5059492;28;20455;-45
2023/11/15 10:38:51;;;;;;;2.30;1.50;;;11.20;92.30;;;;;;5058603;28;20462;-45
2023/11/15 10:41:23;;;;;;;2.87;1.50;;;11.20;92.30;;;;;;5059041;28;21173;-46
2023/11/15 10:43:54;;;;;;;4.50;2.30;;;11.20;92.30;;;;;;5065006;28;20482;-46
2023/11/15 10:46:29;;;;;;;5.17;1.83;;;11.20;92.40;;;;;;5055382;28;20458;-47
2023/11/15 10:48:58;;;;;;;4.00;1.47;;;11.30;92.40;;;;;;5056794;28;20470;-45
2023/11/15 10:51:41;;;;;;;2.87;1.43;;;11.30;92.30;;;;;;5060381;28;20440;-47
2023/11/15 10:54:12;;;;;;;3.83;1.60;;;11.20;92.30;;;;;;5058734;28;20455;-45
2023/11/15 10:56:41;;;;;;;3.30;1.20;;;11.20;92.40;;;;;;5062922;28;20447;-45
2023/11/15 10:59:10;;;;;;;4.10;1.80;;;11.20;92.30;;;;;;5051557;28;20470;-46
2023/11/15 11:01:42;;;;;;;1.80;1.23;;;11.20;92.40;;;;;;5069630;28;20433;-46
2023/11/15 11:04:10;;;;;;;4.23;1.77;;;11.20;92.30;;;;;;5054608;28;20467;-45
2023/11/15 11:06:47;;;;;;;2.17;1.30;;;11.20;92.30;;;;;;5067272;28;20531;-47
2023/11/15 11:09:21;;;;;;;2.37;1.40;;;11.20;92.40;;;;;;5060817;28;20465;-46
2023/11/15 11:11:54;;;;;;;2.47;1.47;;;11.20;92.40;;;;;;5060037;28;20487;-46
2023/11/15 11:14:26;;;;;;;4.07;1.33;;;11.20;92.90;;;;;;5057736;28;20471;-46
2023/11/15 11:16:57;;;;;;;2.13;1.50;;;11.20;92.40;;;;;;5060172;28;20459;-47
2023/11/15 11:19:26;;;;;;;2.17;1.40;;;11.20;92.40;;;;;;5061374;28;20484;-46
2023/11/15 11:22:06;;;;;;;2.63;1.50;;;11.20;92.50;;;;;;5067971;28;20433;-45
2023/11/15 11:24:38;;;;;;;2.17;1.57;;;11.20;92.40;;;;;;5059181;28;20479;-45
2023/11/15 11:27:30;;;;;;;2.33;1.47;;;11.20;92.50;;;;;;5062089;28;21042;-45
2023/11/15 11:30:20;;;;;;;2.07;1.30;;;11.20;92.40;;;;;;5064582;28;20452;-47
2023/11/15 11:33:06;;;;;;;3.20;1.27;;;11.20;92.40;;;;;;5066072;28;20438;-45
2023/11/15 11:35:40;;;;;;;3.50;1.23;;;11.20;92.50;;;;;;5057207;28;20580;-47
2023/11/15 11:38:14;;;;;;;3.83;1.40;;;11.20;92.50;;;;;;5062989;28;20467;-45
2023/11/15 11:40:43;;;;;;;2.73;1.27;;;11.20;92.50;;;;;;5060793;28;20471;-46
2023/11/15 11:43:30;;;;;;;3.63;1.40;;;11.30;92.50;;;;;;5066682;28;20454;-46
2023/11/15 11:46:11;;;;;;;3.47;1.30;;;11.20;92.50;;;;;;5060286;28;20551;-46
2023/11/15 11:48:42;;;;;;;4.13;1.33;;;11.30;92.50;;;;;;5063959;28;20981;-46
2023/11/15 11:51:10;;;;;;;4.10;1.73;;;11.20;92.50;;;;;;5062823;28;20493;-47
2023/11/15 11:53:54;;;;;;;2.17;1.57;;;11.30;92.50;;;;;;5059982;28;20495;-45
2023/11/15 11:56:26;;;;;;;1.83;1.20;;;11.30;92.50;;;;;;5060279;28;20502;-46
2023/11/15 11:58:54;;;;;;;5.67;1.67;;;11.30;92.50;;;;;;5059381;28;20495;-45
2023/11/15 12:01:22;;;;;;;2.53;1.37;;;11.30;92.50;;;;;;5064792;28;20467;-45
2023/11/15 12:04:01;;;;;;;3.63;1.33;;;11.30;92.50;;;;;;5060352;28;20462;-45
2023/11/15 12:06:29;;;;;;;2.50;1.57;;;11.30;92.50;;;;;;5063618;28;20460;-47
2023/11/15 12:08:57;;;;;;;1.93;1.30;;;11.30;92.50;;;;;;5063606;28;20516;-46
2023/11/15 12:11:25;;;;;;;4.20;2.10;;;11.30;92.50;;;;;;5064174;28;20435;-45
2023/11/15 12:13:53;;;;;;;3.90;1.43;;;11.30;92.50;;;;;;5063495;28;20987;-46
2023/11/15 12:16:23;;;;;;;3.97;1.50;;;11.30;92.50;;;;;;5068464;28;20462;-45
2023/11/15 12:19:08;;;;;;;4.97;1.27;;;11.30;92.50;;;;;;5060867;28;20781;-46
2023/11/15 12:21:42;;;;;;;2.10;1.77;;;11.30;92.50;;;;;;5063781;28;20470;-45
2023/11/15 12:24:17;;;;;;;2.90;1.60;;;11.30;92.50;;;;;;5058743;28;20565;-44
2023/11/15 12:26:46;;;;;;;2.30;1.40;;;11.30;92.50;;;;;;5062329;28;20459;-45
2023/11/15 12:29:20;;;;;;;3.77;1.50;;;11.30;92.50;;;;;;5069134;28;20975;-47
2023/11/15 12:31:53;;;;;;;3.73;1.23;;;11.30;92.50;;;;;;5064651;28;20434;-46
2023/11/15 12:34:24;;;;;;;2.67;1.20;;;11.30;92.50;;;;;;5064014;28;20470;-46
2023/11/15 12:36:53;;;;;;;3.40;1.40;;;11.30;92.50;;;;;;5063814;28;20451;-45
2023/11/15 12:39:22;;;;;;;2.33;1.03;;;11.30;92.50;;;;;;5059534;28;20475;-45
2023/11/15 12:41:52;;;;;;;2.23;1.30;;;11.30;92.50;;;;;;5069001;28;20462;-45
2023/11/15 12:44:21;;;;;;;2.57;1.50;;;11.30;92.40;;;;;;5062824;28;20511;-44
2023/11/15 12:46:53;;;;;;;2.60;1.53;;;11.30;92.40;;;;;;5064627;28;20452;-45
2023/11/15 12:49:27;;;;;;;6.10;1.37;;;11.30;92.40;;;;;;5063162;28;20861;-46
2023/11/15 12:51:55;;;;;;;1.43;0.97;;;11.30;92.40;;;;;;5059872;28;20433;-46
2023/11/15 12:54:23;;;;;;;2.50;1.50;;;11.30;92.40;;;;;;5058346;28;20479;-46
2023/11/15 12:57:05;;;;;;;2.43;1.20;;;11.30;92.40;;;;;;5066771;28;21075;-45
2023/11/15 12:59:36;;;;;;;1.50;0.80;;;11.30;92.40;;;;;;5069762;28;21037;-46
2023/11/15 13:02:05;;;;;;;2.10;1.03;;;11.30;92.40;;;;;;5066113;28;20501;-47
2023/11/15 13:04:51;;;;;;;2.70;1.10;;;11.30;92.40;;;;;;5059670;28;20460;-46